Terminal Aerodrome Forecast
Issued by NWS

Home | Current Version | Previous Version | Text Only | Print | Product List | Glossary On
Versions: 1 2 3 4 5 6 7 8 9 10 11 12 13 14 15 16 17 18 19 20 21 22 23 24 25
673
FTUS46 KLOX 171440 AAA
TAFLAX
TAF AMD
KLAX 171440Z 1715/1818 VRB03KT P6SM FEW006 SCT200
     FM171900 26006KT P6SM BKN200
     FM172100 25012KT P6SM BKN200
     FM180400 VRB03KT P6SM BKN200=

USA.gov is the U.S. government's official web portal to all federal, state and local government web resources and services.